createdAt,value
2018-08-20T00:02:05.794Z,13.50
2018-08-20T00:04:39.560Z,12.57
2018-08-20T00:07:08.182Z,13.47
2018-08-20T00:09:41.985Z,12.00
2018-08-20T00:12:10.761Z,12.77
2018-08-20T00:14:39.243Z,11.97
2018-08-20T00:17:07.806Z,11.97
2018-08-20T00:19:36.481Z,12.10
2018-08-20T00:22:05.001Z,12.10
2018-08-20T00:24:33.584Z,12.37
2018-08-20T00:27:03.284Z,12.80
2018-08-20T00:29:32.181Z,11.23
2018-08-20T00:32:00.715Z,11.10
2018-08-20T00:34:29.304Z,11.70
2018-08-20T00:36:57.820Z,10.57
2018-08-20T00:39:26.473Z,10.37
2018-08-20T00:41:54.970Z,12.77
2018-08-20T00:44:23.565Z,10.73
2018-08-20T00:46:52.127Z,9.50
2018-08-20T00:49:20.703Z,11.00
2018-08-20T00:51:49.347Z,11.23
2018-08-20T00:54:17.862Z,11.40
2018-08-20T00:56:46.500Z,11.33
2018-08-20T00:59:19.660Z,12.10
2018-08-20T01:01:48.256Z,12.57
2018-08-20T01:07:10.798Z,13.57
2018-08-20T01:09:39.297Z,15.13
2018-08-20T01:12:07.761Z,13.63
2018-08-20T01:14:36.193Z,13.40
2018-08-20T01:17:04.863Z,15.03
2018-08-20T01:19:33.468Z,15.33
2018-08-20T01:22:02.318Z,15.60
2018-08-20T01:24:30.745Z,14.03
2018-08-20T01:26:59.358Z,14.33
2018-08-20T01:29:27.856Z,14.10
2018-08-20T01:31:56.357Z,13.13
2018-08-20T01:34:24.817Z,13.40
2018-08-20T01:36:53.268Z,13.37
2018-08-20T01:39:21.787Z,13.30
2018-08-20T01:41:50.269Z,14.50
2018-08-20T01:44:18.746Z,13.97
2018-08-20T01:46:47.231Z,13.17
2018-08-20T01:49:15.701Z,13.63
2018-08-20T01:51:44.280Z,13.50
2018-08-20T01:54:12.726Z,13.07
2018-08-20T01:56:41.348Z,17.90
2018-08-20T01:59:09.809Z,19.77
2018-08-20T02:01:38.318Z,22.23
2018-08-20T02:04:06.932Z,21.23
2018-08-20T02:06:36.601Z,23.00
2018-08-20T02:09:07.150Z,22.10
2018-08-20T02:11:35.731Z,22.40
2018-08-20T02:14:04.403Z,24.33
2018-08-20T02:16:32.884Z,27.53
2018-08-20T02:19:01.377Z,25.70
2018-08-20T02:21:29.872Z,25.03
2018-08-20T02:23:58.480Z,25.03
2018-08-20T02:26:27.025Z,24.57
2018-08-20T02:28:55.471Z,24.53
2018-08-20T02:31:24.023Z,23.90
2018-08-20T02:33:53.475Z,23.53
2018-08-20T02:36:21.981Z,23.87
2018-08-20T02:38:50.675Z,22.93
2018-08-20T02:41:19.270Z,21.20
2018-08-20T02:43:47.884Z,20.73
2018-08-20T02:46:16.764Z,22.07
2018-08-20T02:48:45.252Z,21.30
2018-08-20T02:51:13.799Z,21.63
2018-08-20T02:53:42.472Z,20.13
2018-08-20T02:56:10.946Z,19.87
2018-08-20T02:58:39.573Z,18.40
2018-08-20T03:01:08.112Z,19.10
2018-08-20T03:03:36.614Z,19.87
2018-08-20T03:06:05.218Z,18.27
2018-08-20T03:08:33.779Z,18.50
2018-08-20T03:11:02.399Z,17.77
2018-08-20T03:13:30.945Z,18.23
2018-08-20T03:15:59.467Z,17.50
2018-08-20T03:18:28.014Z,16.10
2018-08-20T03:20:56.519Z,16.03
2018-08-20T03:23:25.093Z,16.40
2018-08-20T03:25:53.538Z,15.87
2018-08-20T03:28:22.136Z,14.70
2018-08-20T03:30:50.598Z,15.23
2018-08-20T03:33:19.146Z,14.57
2018-08-20T03:35:47.688Z,13.90
2018-08-20T03:38:16.173Z,13.83
2018-08-20T03:40:44.761Z,13.87
2018-08-20T03:43:13.344Z,13.93
2018-08-20T03:45:41.818Z,14.37
2018-08-20T03:48:10.406Z,13.83
2018-08-20T03:50:38.890Z,13.77
2018-08-20T03:53:07.476Z,14.53
2018-08-20T03:55:36.009Z,13.50
2018-08-20T03:58:04.542Z,13.63
2018-08-20T04:00:33.212Z,12.97
2018-08-20T04:03:01.698Z,14.77
2018-08-20T04:05:30.140Z,13.33
2018-08-20T04:07:58.677Z,12.83
2018-08-20T04:10:27.143Z,12.70
2018-08-20T04:12:55.649Z,12.73
2018-08-20T04:15:24.325Z,11.53
2018-08-20T04:17:52.841Z,12.90
2018-08-20T04:20:21.406Z,13.00
2018-08-20T04:22:49.908Z,13.37
2018-08-20T04:25:18.456Z,13.73
2018-08-20T04:27:47.083Z,12.93
2018-08-20T04:30:15.666Z,13.97
2018-08-20T04:32:44.117Z,12.60
2018-08-20T04:35:12.697Z,12.90
2018-08-20T04:37:41.210Z,12.00
2018-08-20T04:40:09.756Z,13.07
2018-08-20T04:42:38.191Z,12.97
2018-08-20T04:45:07.737Z,13.10
2018-08-20T04:47:36.167Z,12.40
2018-08-20T04:50:06.503Z,12.43
2018-08-20T04:52:34.844Z,12.07
2018-08-20T04:55:03.309Z,11.83
2018-08-20T04:57:31.980Z,12.00
2018-08-20T05:00:00.423Z,11.67
2018-08-20T05:02:28.877Z,11.07
2018-08-20T05:04:57.292Z,11.00
2018-08-20T05:07:25.764Z,11.03
2018-08-20T05:09:54.880Z,10.27
2018-08-20T05:12:23.402Z,9.77
2018-08-20T05:14:51.924Z,9.53
2018-08-20T05:17:20.565Z,10.80
2018-08-20T05:19:49.243Z,10.80
2018-08-20T05:22:17.743Z,10.90
2018-08-20T05:24:46.244Z,11.43
2018-08-20T05:27:14.956Z,10.67
2018-08-20T05:29:43.491Z,11.20
2018-08-20T05:32:12.066Z,13.00
2018-08-20T05:34:40.570Z,11.63
2018-08-20T05:37:09.024Z,12.30
2018-08-20T05:39:37.625Z,12.30
2018-08-20T05:42:06.211Z,13.27
2018-08-20T05:44:34.793Z,13.53
2018-08-20T05:47:03.285Z,14.50
2018-08-20T05:49:31.736Z,15.63
2018-08-20T05:52:00.353Z,15.93
2018-08-20T05:54:28.912Z,15.83
2018-08-20T05:56:57.411Z,17.37
2018-08-20T05:59:29.222Z,16.40
2018-08-20T06:01:57.754Z,17.17
2018-08-20T06:04:26.253Z,17.47
2018-08-20T06:06:54.793Z,17.90
2018-08-20T06:09:23.290Z,17.57
2018-08-20T06:11:51.910Z,17.67
2018-08-20T06:14:20.452Z,17.07
2018-08-20T06:16:48.932Z,19.33
2018-08-20T06:19:17.423Z,20.20
2018-08-20T06:21:46.041Z,20.97
2018-08-20T06:24:14.597Z,20.57
2018-08-20T06:26:43.209Z,22.17
2018-08-20T06:29:11.794Z,21.23
2018-08-20T06:31:40.352Z,22.50
2018-08-20T06:34:08.848Z,24.33
2018-08-20T06:36:37.369Z,27.33
2018-08-20T06:39:07.764Z,24.00
2018-08-20T06:41:36.408Z,27.23
2018-08-20T06:44:05.328Z,26.47
2018-08-20T06:46:33.960Z,27.37
2018-08-20T06:49:02.470Z,26.77
2018-08-20T06:51:30.988Z,30.23
2018-08-20T06:53:59.614Z,29.90
2018-08-20T06:56:42.451Z,31.47
2018-08-20T06:59:10.948Z,30.20
2018-08-20T07:01:39.644Z,29.47
2018-08-20T07:04:08.683Z,31.57
2018-08-20T07:06:37.224Z,32.23
2018-08-20T07:09:06.270Z,30.77
2018-08-20T07:11:34.771Z,35.53
2018-08-20T07:14:04.503Z,35.10
2018-08-20T07:16:32.989Z,34.10
2018-08-20T07:19:01.523Z,34.57
2018-08-20T07:21:29.984Z,37.77
2018-08-20T07:23:58.564Z,35.83
2018-08-20T07:26:27.157Z,33.83
2018-08-20T07:28:55.704Z,35.00
2018-08-20T07:31:24.340Z,35.10
2018-08-20T07:33:53.089Z,35.37
2018-08-20T07:36:21.641Z,34.73
2018-08-20T07:38:50.284Z,34.67
2018-08-20T07:41:18.840Z,36.07
2018-08-20T07:43:47.390Z,36.93
2018-08-20T07:46:15.999Z,36.03
2018-08-20T07:48:44.602Z,37.77
2018-08-20T07:51:13.094Z,38.27
2018-08-20T07:53:41.647Z,38.67
2018-08-20T07:56:10.155Z,38.10
2018-08-20T07:58:38.754Z,38.00
2018-08-20T08:01:07.429Z,37.03
2018-08-20T08:03:36.018Z,38.30
2018-08-20T08:06:05.399Z,37.07
2018-08-20T08:08:34.293Z,38.50
2018-08-20T08:11:03.066Z,37.07
2018-08-20T08:13:31.733Z,37.70
2018-08-20T08:16:00.251Z,38.40
2018-08-20T08:18:28.799Z,37.43
2018-08-20T08:20:57.416Z,36.87
2018-08-20T08:23:25.977Z,37.40
2018-08-20T08:25:54.604Z,38.00
2018-08-20T08:28:23.144Z,38.60
2018-08-20T08:30:51.879Z,37.97
2018-08-20T08:33:20.303Z,36.53
2018-08-20T08:35:48.785Z,37.10
2018-08-20T08:38:17.319Z,38.07
2018-08-20T08:40:45.870Z,37.03
2018-08-20T08:43:14.538Z,38.50
2018-08-20T08:45:43.036Z,35.90
2018-08-20T08:48:11.857Z,36.43
2018-08-20T08:50:40.456Z,36.67
2018-08-20T08:53:09.127Z,37.40
2018-08-20T08:55:37.775Z,37.10
2018-08-20T08:58:06.575Z,38.33
2018-08-20T09:00:35.368Z,37.03
2018-08-20T09:03:03.904Z,37.80
2018-08-20T09:05:32.454Z,36.47
2018-08-20T09:08:01.016Z,38.53
2018-08-20T09:10:29.652Z,38.50
2018-08-20T09:12:58.326Z,36.97
2018-08-20T09:15:26.968Z,39.87
2018-08-20T09:17:55.638Z,34.73
2018-08-20T09:20:24.244Z,39.80
2018-08-20T09:22:52.757Z,39.13
2018-08-20T09:25:21.301Z,40.20
2018-08-20T09:27:49.890Z,39.37
2018-08-20T09:30:21.202Z,38.53
2018-08-20T09:32:49.978Z,37.70
2018-08-20T09:35:18.566Z,39.90
2018-08-20T09:37:47.102Z,38.83
2018-08-20T09:40:15.785Z,36.67
2018-08-20T09:42:44.796Z,37.97
2018-08-20T09:45:13.361Z,36.00
2018-08-20T09:47:42.653Z,32.40
2018-08-20T09:50:12.825Z,38.33
2018-08-20T09:52:41.391Z,31.37
2018-08-20T09:55:10.455Z,35.93
2018-08-20T09:57:39.359Z,31.47
2018-08-20T10:00:11.347Z,36.07
2018-08-20T10:02:39.952Z,29.83
2018-08-20T10:05:08.615Z,35.07
2018-08-20T10:07:37.146Z,28.50
2018-08-20T10:10:06.308Z,35.50
2018-08-20T10:12:34.875Z,28.70
2018-08-20T10:15:03.418Z,35.93
2018-08-20T10:17:32.027Z,30.10
2018-08-20T10:20:00.600Z,36.07
2018-08-20T10:22:29.189Z,30.63
2018-08-20T10:24:58.029Z,37.63
2018-08-20T10:27:26.547Z,29.87
2018-08-20T10:29:55.092Z,33.40
2018-08-20T10:32:23.658Z,29.57
2018-08-20T10:34:52.234Z,34.70
2018-08-20T10:37:20.764Z,28.80
2018-08-20T10:39:49.355Z,33.63
2018-08-20T10:42:18.053Z,29.63
2018-08-20T10:44:54.933Z,33.87
2018-08-20T10:47:23.426Z,28.20
2018-08-20T10:49:51.904Z,31.37
2018-08-20T10:52:20.541Z,27.53
2018-08-20T10:54:49.095Z,31.07
2018-08-20T10:57:17.669Z,27.50
2018-08-20T10:59:46.231Z,30.57
2018-08-20T11:02:14.761Z,29.00
2018-08-20T11:04:43.350Z,31.17
2018-08-20T11:07:12.018Z,26.30
2018-08-20T11:09:40.633Z,30.87
2018-08-20T11:12:09.109Z,24.80
2018-08-20T11:14:37.645Z,28.43
2018-08-20T11:17:06.409Z,25.27
2018-08-20T11:19:34.941Z,30.93
2018-08-20T11:22:03.657Z,29.30
2018-08-20T11:24:32.133Z,29.17
2018-08-20T11:27:00.742Z,27.70
2018-08-20T11:29:29.368Z,26.00
2018-08-20T11:31:57.952Z,22.27
2018-08-20T11:34:26.496Z,26.80
2018-08-20T11:36:55.123Z,25.63
2018-08-20T11:39:23.605Z,23.27
2018-08-20T11:41:52.333Z,23.80
2018-08-20T11:44:20.805Z,22.93
2018-08-20T11:46:49.336Z,26.07
2018-08-20T11:49:18.103Z,25.00
2018-08-20T11:51:46.584Z,22.60
2018-08-20T11:54:15.311Z,22.27
2018-08-20T11:56:43.873Z,22.43
2018-08-20T11:59:12.361Z,22.13
2018-08-20T12:01:40.974Z,19.87
2018-08-20T12:04:10.134Z,22.97
2018-08-20T12:06:38.674Z,24.07
2018-08-20T12:09:07.405Z,23.13
2018-08-20T12:11:36.014Z,16.90
2018-08-20T12:14:04.562Z,16.97
2018-08-20T12:16:33.061Z,14.80
2018-08-20T12:19:01.641Z,12.97
2018-08-20T12:21:30.207Z,11.17
2018-08-20T12:23:59.000Z,12.43
2018-08-20T12:26:27.525Z,12.47
2018-08-20T12:28:56.090Z,11.47
2018-08-20T12:34:04.505Z,9.27
2018-08-20T12:36:33.138Z,10.40
2018-08-20T12:39:01.595Z,9.80
2018-08-20T12:41:30.171Z,10.23
2018-08-20T12:43:58.737Z,9.30
2018-08-20T12:46:27.170Z,9.57
2018-08-20T12:48:55.715Z,8.70
2018-08-20T12:51:24.287Z,9.57
2018-08-20T12:53:52.970Z,9.43
2018-08-20T12:56:21.456Z,7.07
2018-08-20T12:58:51.097Z,9.10
2018-08-20T13:01:19.751Z,10.43
2018-08-20T13:03:49.144Z,8.97
2018-08-20T13:06:17.696Z,9.93
2018-08-20T13:08:47.305Z,10.03
2018-08-20T13:11:16.156Z,7.47
2018-08-20T13:13:45.248Z,9.30
2018-08-20T13:16:14.371Z,7.63
2018-08-20T13:18:42.699Z,9.73
2018-08-20T13:21:11.199Z,7.87
2018-08-20T13:23:39.661Z,10.90
2018-08-20T13:26:08.253Z,7.93
2018-08-20T13:28:36.864Z,11.27
2018-08-20T13:31:05.429Z,9.87
2018-08-20T13:33:34.000Z,11.37
2018-08-20T13:36:02.494Z,9.70
2018-08-20T13:38:31.057Z,11.27
2018-08-20T13:40:59.622Z,9.83
2018-08-20T13:43:28.163Z,9.80
2018-08-20T13:45:56.651Z,10.27
2018-08-20T13:48:25.124Z,10.53
2018-08-20T13:50:54.933Z,9.67
2018-08-20T13:53:23.739Z,10.07
2018-08-20T13:55:52.289Z,8.27
2018-08-20T13:58:20.868Z,10.83
2018-08-20T14:00:49.448Z,7.37
2018-08-20T14:03:17.956Z,6.70
2018-08-20T14:05:47.014Z,4.50
2018-08-20T14:08:15.620Z,5.40
2018-08-20T14:10:44.283Z,4.33
2018-08-20T14:13:12.896Z,5.47
2018-08-20T14:15:41.570Z,4.50
2018-08-20T14:18:10.294Z,5.77
2018-08-20T14:20:39.265Z,6.87
2018-08-20T14:23:07.843Z,5.00
2018-08-20T14:25:36.325Z,4.97
2018-08-20T14:28:05.527Z,4.27
2018-08-20T14:30:34.238Z,4.60
2018-08-20T14:33:02.700Z,6.23
2018-08-20T14:35:31.157Z,5.27
2018-08-20T14:37:59.668Z,4.77
2018-08-20T14:40:28.264Z,4.17
2018-08-20T14:42:56.741Z,5.20
2018-08-20T14:45:29.443Z,5.43
2018-08-20T14:47:58.005Z,5.30
2018-08-20T14:50:26.465Z,5.33
2018-08-20T14:52:55.059Z,4.27
2018-08-20T14:55:23.607Z,5.60
2018-08-20T14:57:52.534Z,5.90
2018-08-20T15:00:21.111Z,6.70
2018-08-20T15:02:49.619Z,5.83
2018-08-20T15:05:18.250Z,5.33
2018-08-20T15:07:46.761Z,5.80
2018-08-20T15:10:15.244Z,5.27
2018-08-20T15:12:43.713Z,6.83
2018-08-20T15:15:12.265Z,5.30
2018-08-20T15:17:40.790Z,5.83
2018-08-20T15:20:09.752Z,5.10
2018-08-20T15:22:38.766Z,6.37
2018-08-20T15:25:07.358Z,5.27
2018-08-20T15:27:35.974Z,6.20
2018-08-20T15:30:04.968Z,5.80
2018-08-20T15:32:33.514Z,5.00
2018-08-20T15:35:01.962Z,7.33
2018-08-20T15:37:30.500Z,6.17
2018-08-20T15:39:59.059Z,7.40
2018-08-20T15:42:27.519Z,5.73
2018-08-20T15:44:56.006Z,6.33
2018-08-20T15:47:24.445Z,5.80
2018-08-20T15:49:52.884Z,6.37
2018-08-20T15:52:21.392Z,2.83
2018-08-20T15:54:50.145Z,5.60
2018-08-20T15:57:18.640Z,2.47
2018-08-20T15:59:47.119Z,2.47
2018-08-20T16:02:15.777Z,2.57
2018-08-20T16:04:44.380Z,2.60
2018-08-20T16:07:13.008Z,1.50
2018-08-20T16:09:41.496Z,0.60
2018-08-20T16:12:10.030Z,0.90
2018-08-20T16:14:38.614Z,1.33
2018-08-20T16:17:07.102Z,1.30
2018-08-20T16:19:35.562Z,1.70
2018-08-20T16:22:04.189Z,2.57
2018-08-20T16:24:32.763Z,1.60
2018-08-20T16:27:01.314Z,1.60
2018-08-20T16:29:29.863Z,1.97
2018-08-20T16:31:58.406Z,2.03
2018-08-20T16:34:27.067Z,1.40
2018-08-20T16:36:55.679Z,1.00
2018-08-20T16:39:24.557Z,2.00
2018-08-20T16:42:02.560Z,1.20
2018-08-20T16:44:31.045Z,2.10
2018-08-20T16:46:59.558Z,1.93
2018-08-20T16:49:28.159Z,2.90
2018-08-20T16:51:56.699Z,2.23
2018-08-20T16:54:25.231Z,2.63
2018-08-20T16:56:53.728Z,2.80
2018-08-20T16:59:22.374Z,2.70
2018-08-20T17:01:50.951Z,2.90
2018-08-20T17:04:32.620Z,3.67
2018-08-20T17:07:02.850Z,3.37
2018-08-20T17:09:31.413Z,3.63
2018-08-20T17:12:00.054Z,4.17
2018-08-20T17:14:28.599Z,4.80
2018-08-20T17:16:57.116Z,4.07
2018-08-20T17:19:45.718Z,4.23
2018-08-20T17:22:14.421Z,3.60
2018-08-20T17:24:43.001Z,2.70
2018-08-20T17:27:12.101Z,4.17
2018-08-20T17:29:40.621Z,4.07
2018-08-20T17:32:09.915Z,3.80
2018-08-20T17:34:43.394Z,3.13
2018-08-20T17:37:12.181Z,4.60
2018-08-20T17:39:58.366Z,4.67
2018-08-20T17:42:28.575Z,5.33
2018-08-20T17:44:57.409Z,5.30
2018-08-20T17:47:27.019Z,4.83
2018-08-20T17:49:56.704Z,4.60
2018-08-20T17:52:38.270Z,4.73
2018-08-20T17:55:06.771Z,4.30
2018-08-20T17:57:35.240Z,4.20
2018-08-20T18:00:19.088Z,5.80
2018-08-20T18:02:47.521Z,4.67
2018-08-20T18:05:16.370Z,4.27
2018-08-20T18:07:45.489Z,4.70
2018-08-20T18:10:14.065Z,4.97
2018-08-20T18:12:42.612Z,5.00
2018-08-20T18:15:16.473Z,5.40
2018-08-20T18:17:45.515Z,4.87
2018-08-20T18:20:14.402Z,5.17
2018-08-20T18:22:43.102Z,4.60
2018-08-20T18:25:11.758Z,4.40
2018-08-20T18:27:44.338Z,5.10
2018-08-20T18:30:15.900Z,4.70
2018-08-20T18:32:44.615Z,4.97
2018-08-20T18:35:29.822Z,4.33
2018-08-20T18:37:58.379Z,4.87
2018-08-20T18:40:41.525Z,4.27
2018-08-20T18:43:10.102Z,3.60
2018-08-20T18:45:38.696Z,4.03
2018-08-20T18:48:07.256Z,4.13
2018-08-20T18:50:35.828Z,3.93
2018-08-20T18:53:04.446Z,3.90
2018-08-20T18:55:33.037Z,4.00
2018-08-20T18:58:01.617Z,3.63
2018-08-20T19:00:30.248Z,3.70
2018-08-20T19:03:00.544Z,2.97
2018-08-20T19:05:33.599Z,3.03
2018-08-20T19:08:05.859Z,3.43
2018-08-20T19:10:34.469Z,3.20
2018-08-20T19:13:23.960Z,3.23
2018-08-20T19:15:52.634Z,2.93
2018-08-20T23:02:51.641Z,6.10
2018-08-20T23:05:20.240Z,6.10
2018-08-20T23:07:48.795Z,5.93
2018-08-20T23:10:17.511Z,5.67
2018-08-20T23:12:46.153Z,6.60
2018-08-20T23:15:14.901Z,5.90
2018-08-20T23:17:43.478Z,6.50
2018-08-20T23:20:18.977Z,6.07
2018-08-20T23:22:52.843Z,4.77
2018-08-20T23:25:22.171Z,5.33
2018-08-20T23:27:50.789Z,5.50
2018-08-20T23:30:19.948Z,5.60
2018-08-20T23:32:48.661Z,4.93
2018-08-20T23:35:17.261Z,5.67
2018-08-20T23:37:45.760Z,7.00
2018-08-20T23:40:14.360Z,6.47
2018-08-20T23:42:42.943Z,5.70
2018-08-20T23:45:11.542Z,5.63
2018-08-20T23:47:40.081Z,5.83
2018-08-20T23:50:08.665Z,6.87
2018-08-20T23:52:37.229Z,6.40
2018-08-20T23:55:05.832Z,6.50
2018-08-20T23:57:34.912Z,6.13
